Portada
METAR-TAF:

METAR-TAF

Aeroports :

Marília, São Paulo, Brasil

latitud: 22-11-44S, longitud: 049-55-37W, altitud: 647 m

Observació

L'informe es va fer fa 23 hores i 3 minuts, a les 17:00 UTC
Vent 8 kt del Est/Sud-Est
Temperatura 30°C
Humitat 55%
Pressió 1015 hPa
Visibilitat 10 km o més
Núvols disperses a una alçada de 3500 ft
Cel ennuvolat a una alçada de 8000 ft

METAR: SBML 111700Z 11008KT 9999 SCT035 BKN080 30/20 Q1015

Hora: 14:03 (16:03 UTC)


TAF: manca

Observacions i pronòstics meteorològics de més de 4000 aeroports (METAR i TAF).

Les estacions disponibles són els punts grocs i vermells al mapa.

Posi el ratolí al punt desitjat per veure el nom de l'estació.

Feu clic per veure les observacions i els pronòstics meteorològics.

Per canviar el mapa: feu clic els botons verds amb una creu de color negre per apropar; al botó verd amb un guió per allunyar la imatge; o en les fletxes verdes per a mapes adjacents.


METAR-TAF: